• Join FlightAware (Why Join?)
  • Login
  • US Flag 
03:48AM EDT


 

Airport Tracker/Info


-or-


 

Live Flight TrackerFlight Track Log ✈ UAL5863 ✈ 03-May-2013 ✈ KORD - KMSN

Flight Track Log - Related Links

Times and Time Zones

All times are in EDT time to prevent confusion due to time zone crossing. See the UAL5863 flight status page for this flight to view local times or setup timezone preferences in your user account.

Time Position Orientation Groundspeed Altitude Reporting Facility
EDT Latitude Longitude Course Direction KTS MPH feet Rate Location/Type
09:57PM 42.0833 -87.8333 26° Northeast 257 296 4,200  Level Chicago TRACON
09:58PM 42.1500 -87.8833 331° Northwest 290 334 6,700 2,460 Climbing Chicago TRACON
09:59PM 42.2568 -87.9951 348° North  Level FlightAware Approximate
09:59PM 42.2333 -87.9333 336° Northwest 293 337 9,200  Level Chicago TRACON
10:00PM 42.3302 -88.0166 348° North  Level FlightAware Approximate
10:00PM 42.3164 -87.9806 337° Northwest 323 372 10,100  Level Chicago Center
10:01PM 42.4027 -88.0379 348° North  Level FlightAware Approximate
10:01PM 42.4206 -88.0406 337° Northwest 364 419 10,000  Level Chicago Center
10:02PM 42.5175 -88.0961 337° Northwest 377 434 10,000  Level Chicago Center
10:03PM 42.6142 -88.1531 337° Northwest 377 434 10,000  Level Chicago Center
10:04PM 42.7100 -88.2128 335° Northwest 377 434 10,000  Level Chicago Center
10:05PM 42.8064 -88.2714 336° Northwest 379 436 10,000  Level Chicago Center
10:06PM 42.8969 -88.3442 330° Northwest 385 443 10,000  Level Chicago Center
10:07PM 42.9386 -88.4756 293° West 379 436 10,000  Level Chicago Center
10:08PM 42.9506 -88.6183 277° West 377 434 10,000  Level Chicago Center
10:09PM 42.9494 -88.7586 269° West 369 425 10,000 -180 Level Chicago Center
10:10PM 42.9503 -88.9053 270° West 316 364 9,700 -960 Descending Chicago Center
10:11PM 42.9528 -89.0175 272° West 296 341 8,100 -1,620 Descending Chicago Center
10:12PM 42.9536 -89.1294 271° West 295 339 6,400 -1,860 Descending Chicago Center
10:13PM 42.9550 -89.2367 271° West 287 330 4,400 -1,800 Descending Chicago Center
10:14PM 42.9764 -89.3317 287° West 282 325 2,800 -1,620 Descending Chicago Center